Aviation Digital Data Service (ADDS)

Output produced by METARs form (1156 UTC 22 March 2019)
found at http://www.aviationweather.gov/metar/data/
 
Forecast for: LIME (BERGAMO/ORIO SER, IT)
Text: TAF LIME 221100Z 2212/2312 VRB05KT CAVOK
Forecast period: 1200 UTC 22 March 2019 to 1200 UTC 23 March 2019
Forecast type: FROM: standard forecast or significant change
Winds: variable direction winds at 6 MPH (5 knots; 2.6 m/s)
Visibility: 6 or more miles 10+ km)
Ceiling: unknown
Clouds: missing
Weather: NSW  (no significant weather)